createdAt,value
2022-10-06T00:01:39.170Z,46
2022-10-06T00:04:11.199Z,36
2022-10-06T00:06:43.293Z,45
2022-10-06T00:09:14.673Z,40
2022-10-06T00:11:45.634Z,36
2022-10-06T00:14:17.824Z,44
2022-10-06T00:16:54.591Z,38
2022-10-06T00:19:26.973Z,38
2022-10-06T00:21:58.206Z,36
2022-10-06T00:24:30.893Z,36
2022-10-06T00:27:01.339Z,40
2022-10-06T00:29:32.635Z,32
2022-10-06T00:32:08.586Z,33
2022-10-06T00:34:40.879Z,50
2022-10-06T00:37:13.394Z,39
2022-10-06T00:39:44.457Z,36
2022-10-06T00:42:17.394Z,36
2022-10-06T00:44:49.096Z,33
2022-10-06T00:47:23.139Z,43
2022-10-06T00:49:54.490Z,36
2022-10-06T00:52:25.993Z,37
2022-10-06T00:54:57.004Z,36
2022-10-06T00:57:28.249Z,41
2022-10-06T00:59:59.658Z,32
2022-10-06T01:02:32.207Z,37
2022-10-06T01:05:03.313Z,36
2022-10-06T01:07:34.759Z,41
2022-10-06T01:10:05.949Z,39
2022-10-06T01:12:37.545Z,43
2022-10-06T01:15:09.203Z,41
2022-10-06T01:17:42.990Z,38
2022-10-06T01:20:14.147Z,37
2022-10-06T01:22:47.585Z,40
2022-10-06T01:25:20.758Z,34
2022-10-06T01:27:54.121Z,39
2022-10-06T01:30:26.523Z,34
2022-10-06T01:32:58.209Z,37
2022-10-06T01:35:30.662Z,35
2022-10-06T01:38:02.009Z,41
2022-10-06T01:40:34.621Z,37
2022-10-06T01:43:06.223Z,43
2022-10-06T01:45:37.159Z,42
2022-10-06T01:48:08.824Z,41
2022-10-06T01:50:40.071Z,51
2022-10-06T01:53:11.862Z,48
2022-10-06T01:55:43.003Z,62
2022-10-06T01:58:14.235Z,56
2022-10-06T02:00:45.591Z,53
2022-10-06T02:03:17.046Z,49
2022-10-06T02:05:48.290Z,48
2022-10-06T02:08:19.562Z,40
2022-10-06T02:10:51.735Z,44
2022-10-06T02:13:21.691Z,42
2022-10-06T02:15:53.776Z,37
2022-10-06T02:18:26.082Z,44
2022-10-06T02:20:57.181Z,44
2022-10-06T02:23:28.508Z,43
2022-10-06T02:26:00.953Z,36
2022-10-06T02:28:32.569Z,36
2022-10-06T02:31:03.129Z,39
2022-10-06T02:33:35.221Z,33
2022-10-06T02:36:08.140Z,37
2022-10-06T02:38:39.580Z,37
2022-10-06T02:41:10.871Z,39
2022-10-06T02:43:42.107Z,39
2022-10-06T02:46:15.318Z,37
2022-10-06T02:48:46.125Z,45
2022-10-06T02:51:17.081Z,39
2022-10-06T02:53:48.071Z,36
2022-10-06T02:56:20.819Z,37
2022-10-06T02:58:53.438Z,34
2022-10-06T03:01:24.473Z,36
2022-10-06T03:03:56.118Z,38
2022-10-06T03:06:28.059Z,41
2022-10-06T03:08:57.577Z,39
2022-10-06T03:11:28.333Z,32
2022-10-06T03:13:59.058Z,36
2022-10-06T03:16:30.946Z,32
2022-10-06T03:19:02.367Z,45
2022-10-06T03:21:34.325Z,36
2022-10-06T03:24:06.067Z,35
2022-10-06T03:26:37.132Z,37
2022-10-06T03:29:11.663Z,36
2022-10-06T03:31:40.523Z,37
2022-10-06T03:34:13.115Z,46
2022-10-06T03:36:43.997Z,39
2022-10-06T03:39:15.669Z,35
2022-10-06T03:41:49.317Z,34
2022-10-06T03:44:21.908Z,37
2022-10-06T03:46:52.884Z,35
2022-10-06T03:49:28.578Z,46
2022-10-06T03:52:01.030Z,42
2022-10-06T03:54:31.811Z,42
2022-10-06T03:57:04.921Z,46
2022-10-06T03:59:41.918Z,46
2022-10-06T04:02:13.286Z,47
2022-10-06T04:04:44.597Z,43
2022-10-06T04:07:17.212Z,38
2022-10-06T04:09:48.264Z,37
2022-10-06T04:12:19.161Z,36
2022-10-06T04:14:50.694Z,54
2022-10-06T04:17:21.623Z,40
2022-10-06T04:19:52.826Z,38
2022-10-06T04:22:24.480Z,37
2022-10-06T04:24:55.729Z,52
2022-10-06T04:27:27.947Z,52
2022-10-06T04:29:58.504Z,60
2022-10-06T04:32:29.730Z,47
2022-10-06T04:35:00.532Z,41
2022-10-06T04:37:31.331Z,49
2022-10-06T04:40:05.141Z,39
2022-10-06T04:42:37.657Z,45
2022-10-06T04:45:11.486Z,37
2022-10-06T04:47:43.806Z,45
2022-10-06T04:50:15.243Z,48
2022-10-06T04:52:46.125Z,44
2022-10-06T04:55:17.016Z,52
2022-10-06T04:57:49.218Z,56
2022-10-06T05:00:21.570Z,48
2022-10-06T05:02:52.590Z,53
2022-10-06T05:05:23.362Z,49
2022-10-06T05:07:54.113Z,50
2022-10-06T05:10:24.794Z,41
2022-10-06T05:12:57.107Z,49
2022-10-06T05:15:29.245Z,52
2022-10-06T05:18:00.594Z,48
2022-10-06T05:20:32.360Z,48
2022-10-06T05:23:04.216Z,50
2022-10-06T05:25:35.923Z,63
2022-10-06T05:28:07.108Z,51
2022-10-06T05:30:39.068Z,43
2022-10-06T05:33:10.675Z,42
2022-10-06T05:35:43.819Z,44
2022-10-06T05:38:14.656Z,48
2022-10-06T05:40:46.240Z,52
2022-10-06T05:43:17.487Z,52
2022-10-06T05:45:49.429Z,57
2022-10-06T05:48:19.832Z,48
2022-10-06T05:50:51.153Z,57
2022-10-06T05:53:22.773Z,59
2022-10-06T05:55:54.114Z,52
2022-10-06T05:58:25.326Z,53
2022-10-06T06:00:58.046Z,50
2022-10-06T06:03:29.140Z,53
2022-10-06T06:06:02.117Z,48
2022-10-06T06:08:34.574Z,54
2022-10-06T06:11:05.891Z,50
2022-10-06T06:13:37.258Z,56
2022-10-06T06:16:08.466Z,58
2022-10-06T06:18:40.202Z,57
2022-10-06T06:21:11.850Z,60
2022-10-06T06:23:43.485Z,64
2022-10-06T06:26:14.096Z,58
2022-10-06T06:28:44.694Z,52
2022-10-06T06:31:19.825Z,51
2022-10-06T06:33:47.381Z,49
2022-10-06T06:36:20.079Z,53
2022-10-06T06:38:50.796Z,48
2022-10-06T06:41:23.949Z,51
2022-10-06T06:43:59.847Z,57
2022-10-06T06:46:31.352Z,56
2022-10-06T06:49:04.260Z,54
2022-10-06T06:51:35.788Z,51
2022-10-06T06:54:06.945Z,52
2022-10-06T06:56:37.271Z,56
2022-10-06T06:59:08.914Z,49
2022-10-06T07:01:41.621Z,56
2022-10-06T07:04:12.502Z,56
2022-10-06T07:06:43.874Z,59
2022-10-06T07:09:16.426Z,47
2022-10-06T07:11:48.522Z,49
2022-10-06T07:14:17.651Z,66
2022-10-06T07:16:48.220Z,59
2022-10-06T07:19:22.538Z,56
2022-10-06T07:21:50.233Z,49
2022-10-06T07:24:22.286Z,50
2022-10-06T07:26:53.432Z,63
2022-10-06T07:29:24.242Z,56
2022-10-06T07:31:56.107Z,63
2022-10-06T07:34:26.772Z,54
2022-10-06T07:36:57.336Z,60
2022-10-06T07:39:28.548Z,49
2022-10-06T07:41:59.006Z,54
2022-10-06T07:44:29.859Z,56
2022-10-06T07:47:02.357Z,52
2022-10-06T07:49:33.312Z,60
2022-10-06T07:52:04.691Z,60
2022-10-06T07:54:37.765Z,53
2022-10-06T07:57:09.041Z,53
2022-10-06T07:59:39.751Z,48
2022-10-06T08:02:11.063Z,52
2022-10-06T08:04:43.574Z,45
2022-10-06T08:07:15.172Z,37
2022-10-06T08:09:46.553Z,41
2022-10-06T08:12:19.546Z,38
2022-10-06T08:14:54.138Z,40
2022-10-06T08:17:24.521Z,36
2022-10-06T08:19:54.760Z,35
2022-10-06T08:22:28.550Z,37
2022-10-06T08:25:06.052Z,28
2022-10-06T08:27:33.240Z,30
2022-10-06T08:30:05.102Z,32
2022-10-06T08:32:35.906Z,23
2022-10-06T08:35:08.242Z,27
2022-10-06T08:37:42.247Z,26
2022-10-06T08:40:15.536Z,28
2022-10-06T08:42:47.794Z,25
2022-10-06T08:45:17.044Z,27
2022-10-06T08:47:48.022Z,28
2022-10-06T08:50:18.641Z,25
2022-10-06T08:52:50.115Z,26
2022-10-06T08:55:21.475Z,24
2022-10-06T08:57:52.972Z,32
2022-10-06T09:00:24.340Z,32
2022-10-06T09:02:56.150Z,24
2022-10-06T09:05:30.931Z,30
2022-10-06T09:08:01.653Z,32
2022-10-06T09:10:33.439Z,29
2022-10-06T09:13:05.545Z,27
2022-10-06T09:15:36.538Z,31
2022-10-06T09:18:08.582Z,27
2022-10-06T09:20:42.138Z,29
2022-10-06T09:23:15.137Z,27
2022-10-06T09:25:48.136Z,30
2022-10-06T09:28:19.618Z,24
2022-10-06T09:30:54.587Z,25
2022-10-06T09:33:20.521Z,25
2022-10-06T09:35:52.410Z,28
2022-10-06T09:38:24.746Z,29
2022-10-06T09:40:55.537Z,28
2022-10-06T09:43:28.310Z,27
2022-10-06T09:45:59.981Z,31
2022-10-06T09:48:30.778Z,41
2022-10-06T09:51:01.867Z,32
2022-10-06T09:53:36.833Z,33
2022-10-06T09:56:05.153Z,33
2022-10-06T09:58:34.767Z,35
2022-10-06T10:01:05.790Z,28
2022-10-06T10:03:36.946Z,32
2022-10-06T10:06:06.845Z,35
2022-10-06T10:08:38.944Z,36
2022-10-06T10:11:11.220Z,33
2022-10-06T10:13:43.015Z,40
2022-10-06T10:16:13.642Z,29
2022-10-06T10:18:44.571Z,29
2022-10-06T10:21:15.537Z,34
2022-10-06T10:23:45.935Z,35
2022-10-06T10:26:16.442Z,45
2022-10-06T10:28:47.622Z,32
2022-10-06T10:31:20.181Z,32
2022-10-06T10:34:04.773Z,30
2022-10-06T10:36:25.645Z,29
2022-10-06T10:38:54.923Z,29
2022-10-06T10:41:24.570Z,37
2022-10-06T10:43:55.710Z,71
2022-10-06T10:46:27.196Z,35
2022-10-06T10:48:59.117Z,44
2022-10-06T10:51:29.730Z,31
2022-10-06T10:54:00.569Z,39
2022-10-06T10:56:31.252Z,29
2022-10-06T10:59:02.067Z,28
2022-10-06T11:01:35.191Z,32
2022-10-06T11:04:08.741Z,32
2022-10-06T11:06:40.082Z,35
2022-10-06T11:09:12.057Z,30
2022-10-06T11:11:43.375Z,36
2022-10-06T11:14:15.036Z,30
2022-10-06T11:16:49.829Z,28
2022-10-06T11:19:20.652Z,31
2022-10-06T11:21:54.667Z,46
2022-10-06T11:24:25.916Z,36
2022-10-06T11:26:56.289Z,32
2022-10-06T11:29:26.965Z,36
2022-10-06T11:32:00.540Z,39
2022-10-06T11:34:31.781Z,36
2022-10-06T11:37:00.980Z,29
2022-10-06T11:39:34.474Z,35
2022-10-06T11:42:05.554Z,37
2022-10-06T11:44:37.528Z,34
2022-10-06T11:47:08.322Z,32
2022-10-06T11:49:39.521Z,36
2022-10-06T11:52:12.615Z,38
2022-10-06T11:54:43.998Z,40
2022-10-06T11:57:16.291Z,39
2022-10-06T11:59:48.112Z,40
2022-10-06T12:02:23.878Z,32
2022-10-06T12:04:53.941Z,35
2022-10-06T12:07:26.050Z,36
2022-10-06T12:09:58.342Z,44
2022-10-06T12:12:29.069Z,35
2022-10-06T12:16:54.808Z,40
2022-10-06T12:17:30.638Z,30
2022-10-06T12:20:01.483Z,33
2022-10-06T12:22:32.750Z,25
2022-10-06T12:25:03.268Z,28
2022-10-06T12:27:33.986Z,29
2022-10-06T12:30:09.108Z,25
2022-10-06T12:32:40.522Z,32
2022-10-06T12:35:11.137Z,25
2022-10-06T12:37:40.783Z,27
2022-10-06T12:40:11.797Z,35
2022-10-06T12:42:43.212Z,28
2022-10-06T12:45:13.918Z,24
2022-10-06T12:47:47.729Z,27
2022-10-06T12:50:19.556Z,18
2022-10-06T12:52:50.382Z,21
2022-10-06T12:55:24.208Z,24
2022-10-06T12:57:55.904Z,31
2022-10-06T13:00:29.739Z,25
2022-10-06T13:03:00.326Z,23
2022-10-06T13:05:33.579Z,29
2022-10-06T13:08:07.431Z,24
2022-10-06T13:10:38.409Z,27
2022-10-06T13:13:12.656Z,31
2022-10-06T13:15:45.771Z,21
2022-10-06T13:18:16.654Z,26
2022-10-06T13:20:47.106Z,27
2022-10-06T13:23:22.343Z,22
2022-10-06T13:25:53.680Z,25
2022-10-06T13:28:24.112Z,51
2022-10-06T13:30:55.652Z,36
2022-10-06T13:33:31.106Z,27
2022-10-06T13:36:06.704Z,28
2022-10-06T13:41:17.460Z,27
2022-10-06T13:43:49.349Z,31
2022-10-06T13:46:28.246Z,30
2022-10-06T13:49:00.018Z,28
2022-10-06T13:51:35.885Z,28
2022-10-06T13:54:08.095Z,27
2022-10-06T13:56:38.829Z,32
2022-10-06T13:59:12.025Z,27
2022-10-06T14:01:44.468Z,26
2022-10-06T14:04:15.940Z,24
2022-10-06T14:06:47.461Z,21
2022-10-06T14:09:23.643Z,21
2022-10-06T14:11:55.002Z,25
2022-10-06T14:14:24.769Z,20
2022-10-06T14:16:58.425Z,22
2022-10-06T14:19:29.861Z,20
2022-10-06T14:22:01.012Z,16
2022-10-06T14:24:31.638Z,21
2022-10-06T14:27:02.905Z,20
2022-10-06T14:29:33.932Z,12
2022-10-06T14:32:10.457Z,16
2022-10-06T14:34:44.928Z,20
2022-10-06T14:37:15.886Z,16
2022-10-06T14:39:48.019Z,20
2022-10-06T14:42:19.301Z,16
2022-10-06T14:44:48.739Z,22
2022-10-06T14:47:19.475Z,17
2022-10-06T14:49:49.978Z,19
2022-10-06T14:52:21.593Z,17
2022-10-06T14:54:54.899Z,20
2022-10-06T14:57:27.161Z,22
2022-10-06T14:59:58.453Z,20
2022-10-06T15:02:30.817Z,25
2022-10-06T15:05:02.239Z,19
2022-10-06T15:07:32.738Z,20
2022-10-06T15:10:04.426Z,20
2022-10-06T15:12:36.080Z,20
2022-10-06T15:15:07.464Z,20
2022-10-06T15:17:39.003Z,16
2022-10-06T15:20:09.766Z,19
2022-10-06T15:22:40.833Z,15
2022-10-06T15:25:13.393Z,19
2022-10-06T15:27:45.001Z,15
2022-10-06T15:30:16.188Z,16
2022-10-06T15:32:47.899Z,15
2022-10-06T15:35:18.728Z,17
2022-10-06T15:37:52.682Z,17
2022-10-06T15:40:24.912Z,15
2022-10-06T15:42:56.338Z,16
2022-10-06T15:45:29.524Z,16
2022-10-06T15:47:59.839Z,20
2022-10-06T15:50:33.189Z,23
2022-10-06T15:53:06.538Z,20
2022-10-06T15:55:38.843Z,21
2022-10-06T15:58:08.028Z,23
2022-10-06T16:00:39.623Z,21
2022-10-06T16:03:12.826Z,19
2022-10-06T16:05:43.657Z,20
2022-10-06T16:08:15.917Z,24
2022-10-06T16:10:49.612Z,24
2022-10-06T16:13:21.035Z,33
2022-10-06T16:15:52.220Z,32
2022-10-06T16:18:23.283Z,31
2022-10-06T16:21:01.779Z,43
2022-10-06T16:23:34.518Z,50
2022-10-06T16:26:11.934Z,64
2022-10-06T16:28:46.101Z,60
2022-10-06T16:31:18.591Z,58
2022-10-06T16:33:49.979Z,53
2022-10-06T16:36:22.361Z,39
2022-10-06T16:38:54.423Z,28
2022-10-06T16:41:32.634Z,167
2022-10-06T16:44:04.314Z,56
2022-10-06T16:46:36.341Z,43
2022-10-06T16:49:09.770Z,39
2022-10-06T16:51:40.895Z,60
2022-10-06T16:54:12.064Z,54
2022-10-06T16:56:45.906Z,59
2022-10-06T16:59:19.532Z,86
2022-10-06T17:01:51.358Z,98
2022-10-06T17:04:23.305Z,100
2022-10-06T17:06:54.127Z,51
2022-10-06T17:09:30.542Z,44
2022-10-06T17:12:03.036Z,49
2022-10-06T17:14:36.510Z,48
2022-10-06T17:17:09.092Z,52
2022-10-06T17:19:40.529Z,64
2022-10-06T17:22:11.660Z,65
2022-10-06T17:24:44.724Z,70
2022-10-06T17:27:21.374Z,72
2022-10-06T17:29:55.623Z,67
2022-10-06T17:32:28.194Z,65
2022-10-06T17:34:59.321Z,63
2022-10-06T17:37:32.999Z,69
2022-10-06T17:40:06.282Z,58
2022-10-06T17:45:17.679Z,56
2022-10-06T17:47:48.378Z,56
2022-10-06T17:50:19.873Z,56
2022-10-06T17:52:51.368Z,56
2022-10-06T17:55:24.395Z,55
2022-10-06T17:57:55.633Z,55
2022-10-06T18:00:28.809Z,53
2022-10-06T18:03:00.248Z,52
2022-10-06T18:05:33.382Z,48
2022-10-06T18:08:04.633Z,48
2022-10-06T18:10:36.228Z,47
2022-10-06T18:13:10.840Z,59
2022-10-06T18:15:43.503Z,57
2022-10-06T18:18:16.699Z,62
2022-10-06T18:20:47.869Z,60
2022-10-06T18:23:19.151Z,60
2022-10-06T18:25:52.806Z,68
2022-10-06T18:28:24.242Z,61
2022-10-06T18:30:56.509Z,62
2022-10-06T18:36:11.842Z,66
2022-10-06T18:38:45.411Z,64
2022-10-06T18:41:17.153Z,67
2022-10-06T18:43:51.208Z,65
2022-10-06T18:46:24.471Z,65
2022-10-06T18:48:59.368Z,60
2022-10-06T18:51:30.812Z,66
2022-10-06T18:54:03.089Z,63
2022-10-06T18:56:32.683Z,62
2022-10-06T18:59:04.002Z,66
2022-10-06T19:01:37.606Z,69
2022-10-06T19:04:15.414Z,69
2022-10-06T19:06:47.650Z,63
2022-10-06T19:09:18.892Z,81
2022-10-06T19:11:49.581Z,69
2022-10-06T19:14:21.541Z,66
2022-10-06T19:16:57.114Z,70
2022-10-06T19:19:29.746Z,62
2022-10-06T19:21:59.411Z,74
2022-10-06T19:24:30.785Z,68
2022-10-06T19:27:01.944Z,64
2022-10-06T19:29:34.111Z,65
2022-10-06T19:32:07.235Z,61
2022-10-06T19:34:40.734Z,64
2022-10-06T19:37:12.041Z,64
2022-10-06T19:39:48.345Z,68
2022-10-06T19:42:23.945Z,56
2022-10-06T19:44:56.128Z,61
2022-10-06T19:47:38.328Z,61
2022-10-06T19:50:11.959Z,60
2022-10-06T19:52:39.139Z,63
2022-10-06T19:55:11.659Z,65
2022-10-06T19:57:47.071Z,64
2022-10-06T20:00:25.960Z,66
2022-10-06T20:02:57.221Z,68
2022-10-06T20:05:30.616Z,71
2022-10-06T20:10:37.094Z,62
2022-10-06T20:13:08.160Z,62
2022-10-06T20:15:45.761Z,66
2022-10-06T20:18:21.795Z,64
2022-10-06T20:20:54.668Z,60
2022-10-06T20:23:25.811Z,66
2022-10-06T20:25:56.668Z,69
2022-10-06T20:28:28.478Z,67
2022-10-06T20:30:59.838Z,66
2022-10-06T20:33:31.352Z,68
2022-10-06T20:36:03.202Z,61
2022-10-06T20:38:40.112Z,59
2022-10-06T20:41:10.265Z,68
2022-10-06T20:43:39.974Z,68
2022-10-06T20:46:09.554Z,68
2022-10-06T20:48:41.102Z,56
2022-10-06T20:51:11.059Z,64
2022-10-06T20:53:43.444Z,67
2022-10-06T20:56:14.080Z,64
2022-10-06T20:58:51.995Z,66
2022-10-06T21:01:27.360Z,64
2022-10-06T21:04:02.364Z,56
2022-10-06T21:06:35.302Z,66
2022-10-06T21:09:18.383Z,61
2022-10-06T21:11:53.366Z,61
2022-10-06T21:14:25.951Z,52
2022-10-06T21:16:56.799Z,64
2022-10-06T21:19:26.839Z,62
2022-10-06T21:21:59.919Z,65
2022-10-06T21:24:31.266Z,65
2022-10-06T21:27:02.767Z,59
2022-10-06T21:29:33.999Z,65
2022-10-06T21:32:04.002Z,67
2022-10-06T21:34:40.451Z,70
2022-10-06T21:37:14.683Z,63
2022-10-06T21:39:46.823Z,61
2022-10-06T21:42:19.331Z,65
2022-10-06T21:44:51.302Z,64
2022-10-06T21:47:23.175Z,64
2022-10-06T21:49:55.087Z,68
2022-10-06T21:52:24.869Z,66
2022-10-06T21:54:57.123Z,68
2022-10-06T21:57:28.679Z,63
2022-10-06T21:59:59.863Z,59
2022-10-06T22:02:38.051Z,63
2022-10-06T22:05:09.443Z,60
2022-10-06T22:07:39.878Z,63
2022-10-06T22:10:11.198Z,66
2022-10-06T22:12:42.948Z,56
2022-10-06T22:15:15.566Z,61
2022-10-06T22:17:46.880Z,60
2022-10-06T22:20:21.600Z,61
2022-10-06T22:22:54.902Z,61
2022-10-06T22:25:31.965Z,56
2022-10-06T22:28:04.567Z,61
2022-10-06T22:30:33.282Z,58
2022-10-06T22:33:03.296Z,56
2022-10-06T22:35:34.099Z,60
2022-10-06T22:38:05.486Z,68
2022-10-06T22:40:37.136Z,62
2022-10-06T22:43:08.419Z,72
2022-10-06T22:45:38.848Z,69
2022-10-06T22:48:09.436Z,68
2022-10-06T22:50:40.145Z,68
2022-10-06T22:53:11.864Z,69
2022-10-06T22:55:42.978Z,68
2022-10-06T22:58:14.206Z,71
2022-10-06T23:00:50.139Z,69
2022-10-06T23:03:21.715Z,59
2022-10-06T23:05:53.360Z,64
2022-10-06T23:08:25.213Z,65
2022-10-06T23:10:56.607Z,58
2022-10-06T23:13:30.980Z,54
2022-10-06T23:16:07.488Z,61
2022-10-06T23:18:37.509Z,59
2022-10-06T23:21:14.342Z,60
2022-10-06T23:23:44.979Z,60
2022-10-06T23:26:15.608Z,52
2022-10-06T23:28:46.404Z,56
2022-10-06T23:31:17.421Z,59
2022-10-06T23:33:47.656Z,60
2022-10-06T23:36:19.369Z,60
2022-10-06T23:38:50.325Z,52
2022-10-06T23:41:21.151Z,56
2022-10-06T23:43:51.564Z,60
2022-10-06T23:46:22.552Z,57
2022-10-06T23:48:53.226Z,61
2022-10-06T23:51:25.494Z,56
2022-10-06T23:53:57.802Z,61
2022-10-06T23:56:28.137Z,64
2022-10-06T23:58:57.249Z,68
